sensor_id;sensor_type;location;lat;lon;timestamp;temperature;humidity
16635;DHT22;8431;52.458;9.998;2023-07-22T00:01:33;13.20;99.90
16635;DHT22;8431;52.458;9.998;2023-07-22T00:04:02;13.10;99.90
16635;DHT22;8431;52.458;9.998;2023-07-22T00:06:31;13.10;99.90
16635;DHT22;8431;52.458;9.998;2023-07-22T00:08:58;13.00;99.90
16635;DHT22;8431;52.458;9.998;2023-07-22T00:11:25;12.90;99.90
16635;DHT22;8431;52.458;9.998;2023-07-22T00:13:52;12.90;99.90
16635;DHT22;8431;52.458;9.998;2023-07-22T00:16:19;12.90;99.90
16635;DHT22;8431;52.458;9.998;2023-07-22T00:18:46;13.20;99.90
16635;DHT22;8431;52.458;9.998;2023-07-22T00:21:13;13.20;99.90
16635;DHT22;8431;52.458;9.998;2023-07-22T00:23:42;13.20;99.90
16635;DHT22;8431;52.458;9.998;2023-07-22T00:26:09;13.30;99.90
16635;DHT22;8431;52.458;9.998;2023-07-22T00:28:36;13.40;99.90
16635;DHT22;8431;52.458;9.998;2023-07-22T00:31:03;13.20;99.90
16635;DHT22;8431;52.458;9.998;2023-07-22T00:33:30;13.10;99.90
16635;DHT22;8431;52.458;9.998;2023-07-22T00:35:57;13.20;99.90
16635;DHT22;8431;52.458;9.998;2023-07-22T00:38:24;13.10;99.90
16635;DHT22;8431;52.458;9.998;2023-07-22T00:40:56;13.10;99.90
16635;DHT22;8431;52.458;9.998;2023-07-22T00:43:23;13.20;99.90
16635;DHT22;8431;52.458;9.998;2023-07-22T00:45:51;13.10;99.90
16635;DHT22;8431;52.458;9.998;2023-07-22T00:48:19;13.10;99.90
16635;DHT22;8431;52.458;9.998;2023-07-22T00:50:50;13.00;99.90
16635;DHT22;8431;52.458;9.998;2023-07-22T00:53:17;12.90;99.90
16635;DHT22;8431;52.458;9.998;2023-07-22T00:55:45;12.90;99.90
16635;DHT22;8431;52.458;9.998;2023-07-22T00:58:14;13.00;99.90
16635;DHT22;8431;52.458;9.998;2023-07-22T01:00:42;12.90;99.90
16635;DHT22;8431;52.458;9.998;2023-07-22T01:03:08;12.80;99.90
16635;DHT22;8431;52.458;9.998;2023-07-22T01:05:36;12.80;99.90
16635;DHT22;8431;52.458;9.998;2023-07-22T01:08:04;12.80;99.90
16635;DHT22;8431;52.458;9.998;2023-07-22T01:10:31;12.60;99.90
16635;DHT22;8431;52.458;9.998;2023-07-22T01:12:58;12.60;99.90
16635;DHT22;8431;52.458;9.998;2023-07-22T01:15:27;12.50;99.90
16635;DHT22;8431;52.458;9.998;2023-07-22T01:17:55;12.40;99.90
16635;DHT22;8431;52.458;9.998;2023-07-22T01:20:27;12.40;99.90
16635;DHT22;8431;52.458;9.998;2023-07-22T01:22:56;12.40;99.90
16635;DHT22;8431;52.458;9.998;2023-07-22T01:25:23;12.40;99.90
16635;DHT22;8431;52.458;9.998;2023-07-22T01:27:51;12.40;99.90
16635;DHT22;8431;52.458;9.998;2023-07-22T01:30:18;12.30;99.90
16635;DHT22;8431;52.458;9.998;2023-07-22T01:32:46;12.10;99.90
16635;DHT22;8431;52.458;9.998;2023-07-22T01:35:13;12.00;99.90
16635;DHT22;8431;52.458;9.998;2023-07-22T01:37:40;12.10;99.90
16635;DHT22;8431;52.458;9.998;2023-07-22T01:40:25;12.10;99.90
16635;DHT22;8431;52.458;9.998;2023-07-22T01:42:54;11.90;99.90
16635;DHT22;8431;52.458;9.998;2023-07-22T01:45:21;12.00;99.90
16635;DHT22;8431;52.458;9.998;2023-07-22T01:47:48;11.90;99.90
16635;DHT22;8431;52.458;9.998;2023-07-22T01:50:15;11.80;99.90
16635;DHT22;8431;52.458;9.998;2023-07-22T01:52:44;11.80;99.90
16635;DHT22;8431;52.458;9.998;2023-07-22T01:55:12;11.80;99.90
16635;DHT22;8431;52.458;9.998;2023-07-22T01:57:41;11.90;99.90
16635;DHT22;8431;52.458;9.998;2023-07-22T02:00:08;11.90;99.90
16635;DHT22;8431;52.458;9.998;2023-07-22T02:02:36;12.00;99.90
16635;DHT22;8431;52.458;9.998;2023-07-22T02:05:04;12.00;99.90
16635;DHT22;8431;52.458;9.998;2023-07-22T02:07:31;12.00;99.90
16635;DHT22;8431;52.458;9.998;2023-07-22T02:09:58;12.00;99.90
16635;DHT22;8431;52.458;9.998;2023-07-22T02:12:25;12.10;99.90
16635;DHT22;8431;52.458;9.998;2023-07-22T02:14:54;12.00;99.90
16635;DHT22;8431;52.458;9.998;2023-07-22T02:17:21;12.00;99.90
16635;DHT22;8431;52.458;9.998;2023-07-22T02:19:49;12.00;99.90
16635;DHT22;8431;52.458;9.998;2023-07-22T02:22:16;12.10;99.90
16635;DHT22;8431;52.458;9.998;2023-07-22T02:24:43;11.90;99.90
16635;DHT22;8431;52.458;9.998;2023-07-22T02:27:10;11.90;99.90
16635;DHT22;8431;52.458;9.998;2023-07-22T02:29:37;11.80;99.90
16635;DHT22;8431;52.458;9.998;2023-07-22T02:32:06;11.80;99.90
16635;DHT22;8431;52.458;9.998;2023-07-22T02:34:34;11.90;99.90
16635;DHT22;8431;52.458;9.998;2023-07-22T02:37:01;11.90;99.90
16635;DHT22;8431;52.458;9.998;2023-07-22T02:39:28;11.90;99.90
16635;DHT22;8431;52.458;9.998;2023-07-22T02:41:55;11.90;99.90
16635;DHT22;8431;52.458;9.998;2023-07-22T02:44:22;11.90;99.90
16635;DHT22;8431;52.458;9.998;2023-07-22T02:46:49;12.00;99.90
16635;DHT22;8431;52.458;9.998;2023-07-22T02:49:17;11.90;99.90
16635;DHT22;8431;52.458;9.998;2023-07-22T02:51:44;12.00;99.90
16635;DHT22;8431;52.458;9.998;2023-07-22T02:54:11;11.90;99.90
16635;DHT22;8431;52.458;9.998;2023-07-22T02:56:39;11.90;99.90
16635;DHT22;8431;52.458;9.998;2023-07-22T02:59:06;11.80;99.90
16635;DHT22;8431;52.458;9.998;2023-07-22T03:01:34;11.70;99.90
16635;DHT22;8431;52.458;9.998;2023-07-22T03:04:01;11.80;99.90
16635;DHT22;8431;52.458;9.998;2023-07-22T03:06:31;11.80;99.90
16635;DHT22;8431;52.458;9.998;2023-07-22T03:08:58;11.80;99.90
16635;DHT22;8431;52.458;9.998;2023-07-22T03:11:25;11.70;99.90
16635;DHT22;8431;52.458;9.998;2023-07-22T03:13:52;11.70;99.90
16635;DHT22;8431;52.458;9.998;2023-07-22T03:16:20;11.60;99.90
16635;DHT22;8431;52.458;9.998;2023-07-22T03:18:47;11.70;99.90
16635;DHT22;8431;52.458;9.998;2023-07-22T03:21:14;11.70;99.90
16635;DHT22;8431;52.458;9.998;2023-07-22T03:23:43;11.70;99.90
16635;DHT22;8431;52.458;9.998;2023-07-22T03:26:10;11.70;99.90
16635;DHT22;8431;52.458;9.998;2023-07-22T03:28:37;11.70;99.90
16635;DHT22;8431;52.458;9.998;2023-07-22T03:31:04;11.70;99.90
16635;DHT22;8431;52.458;9.998;2023-07-22T03:33:31;11.70;99.90
16635;DHT22;8431;52.458;9.998;2023-07-22T03:35:58;11.80;99.90
16635;DHT22;8431;52.458;9.998;2023-07-22T03:38:25;11.80;99.90
16635;DHT22;8431;52.458;9.998;2023-07-22T03:40:53;11.80;99.90
16635;DHT22;8431;52.458;9.998;2023-07-22T03:43:20;11.90;99.90
16635;DHT22;8431;52.458;9.998;2023-07-22T03:45:47;11.90;99.90
16635;DHT22;8431;52.458;9.998;2023-07-22T03:48:14;11.90;99.90
16635;DHT22;8431;52.458;9.998;2023-07-22T03:50:41;11.90;99.90
16635;DHT22;8431;52.458;9.998;2023-07-22T03:53:08;11.90;99.90
16635;DHT22;8431;52.458;9.998;2023-07-22T03:55:35;11.90;99.90
16635;DHT22;8431;52.458;9.998;2023-07-22T03:58:03;11.90;99.90
16635;DHT22;8431;52.458;9.998;2023-07-22T04:00:30;11.90;99.90
16635;DHT22;8431;52.458;9.998;2023-07-22T04:02:57;11.90;99.90
16635;DHT22;8431;52.458;9.998;2023-07-22T04:05:24;12.00;99.90
16635;DHT22;8431;52.458;9.998;2023-07-22T04:07:51;12.00;99.90
16635;DHT22;8431;52.458;9.998;2023-07-22T04:10:18;12.10;99.90
16635;DHT22;8431;52.458;9.998;2023-07-22T04:12:45;12.10;99.90
16635;DHT22;8431;52.458;9.998;2023-07-22T04:15:14;12.10;99.90
16635;DHT22;8431;52.458;9.998;2023-07-22T04:17:43;12.10;99.90
16635;DHT22;8431;52.458;9.998;2023-07-22T04:20:11;12.20;99.90
16635;DHT22;8431;52.458;9.998;2023-07-22T04:22:38;12.10;99.90
16635;DHT22;8431;52.458;9.998;2023-07-22T04:25:06;12.20;99.90
16635;DHT22;8431;52.458;9.998;2023-07-22T04:27:34;12.30;99.90
16635;DHT22;8431;52.458;9.998;2023-07-22T04:30:01;12.40;99.90
16635;DHT22;8431;52.458;9.998;2023-07-22T04:32:30;12.40;99.90
16635;DHT22;8431;52.458;9.998;2023-07-22T04:34:57;12.50;99.90
16635;DHT22;8431;52.458;9.998;2023-07-22T04:37:24;12.60;99.90
16635;DHT22;8431;52.458;9.998;2023-07-22T04:39:51;12.70;99.90
16635;DHT22;8431;52.458;9.998;2023-07-22T04:42:18;12.90;99.90
16635;DHT22;8431;52.458;9.998;2023-07-22T04:44:46;12.90;99.90
16635;DHT22;8431;52.458;9.998;2023-07-22T04:47:14;13.00;99.90
16635;DHT22;8431;52.458;9.998;2023-07-22T04:49:43;13.10;99.90
16635;DHT22;8431;52.458;9.998;2023-07-22T04:52:10;13.20;99.90
16635;DHT22;8431;52.458;9.998;2023-07-22T04:54:37;13.30;99.90
16635;DHT22;8431;52.458;9.998;2023-07-22T04:57:05;13.30;99.90
16635;DHT22;8431;52.458;9.998;2023-07-22T04:59:32;13.40;99.90
16635;DHT22;8431;52.458;9.998;2023-07-22T05:01:59;13.40;99.90
16635;DHT22;8431;52.458;9.998;2023-07-22T05:04:26;13.60;99.90
16635;DHT22;8431;52.458;9.998;2023-07-22T05:06:55;13.60;99.90
16635;DHT22;8431;52.458;9.998;2023-07-22T05:09:22;13.60;99.90
16635;DHT22;8431;52.458;9.998;2023-07-22T05:11:49;13.70;99.90
16635;DHT22;8431;52.458;9.998;2023-07-22T05:14:16;13.70;99.90
16635;DHT22;8431;52.458;9.998;2023-07-22T05:16:43;13.70;99.90
16635;DHT22;8431;52.458;9.998;2023-07-22T05:19:10;13.70;99.90
16635;DHT22;8431;52.458;9.998;2023-07-22T05:21:37;13.70;99.90
16635;DHT22;8431;52.458;9.998;2023-07-22T05:24:06;13.70;99.90
16635;DHT22;8431;52.458;9.998;2023-07-22T05:26:33;13.80;99.90
16635;DHT22;8431;52.458;9.998;2023-07-22T05:29:00;13.90;99.90
16635;DHT22;8431;52.458;9.998;2023-07-22T05:31:27;14.00;99.90
16635;DHT22;8431;52.458;9.998;2023-07-22T05:33:54;14.00;99.90
16635;DHT22;8431;52.458;9.998;2023-07-22T05:36:21;14.20;99.90
16635;DHT22;8431;52.458;9.998;2023-07-22T05:38:48;14.40;99.90
16635;DHT22;8431;52.458;9.998;2023-07-22T05:41:16;14.50;99.90
16635;DHT22;8431;52.458;9.998;2023-07-22T05:43:43;14.50;99.90
16635;DHT22;8431;52.458;9.998;2023-07-22T05:46:10;14.40;99.90
16635;DHT22;8431;52.458;9.998;2023-07-22T05:48:37;14.50;99.90
16635;DHT22;8431;52.458;9.998;2023-07-22T05:51:05;14.60;99.90
16635;DHT22;8431;52.458;9.998;2023-07-22T05:53:32;14.60;99.90
16635;DHT22;8431;52.458;9.998;2023-07-22T05:56:00;14.70;99.90
16635;DHT22;8431;52.458;9.998;2023-07-22T05:58:28;14.60;99.90
16635;DHT22;8431;52.458;9.998;2023-07-22T06:00:55;14.70;99.90
16635;DHT22;8431;52.458;9.998;2023-07-22T06:03:22;14.80;99.90
16635;DHT22;8431;52.458;9.998;2023-07-22T06:05:49;14.80;99.90
16635;DHT22;8431;52.458;9.998;2023-07-22T06:08:16;14.80;99.90
16635;DHT22;8431;52.458;9.998;2023-07-22T06:10:43;14.80;99.90
16635;DHT22;8431;52.458;9.998;2023-07-22T06:13:10;14.90;99.90
16635;DHT22;8431;52.458;9.998;2023-07-22T06:15:39;15.00;99.90
16635;DHT22;8431;52.458;9.998;2023-07-22T06:18:06;15.00;99.90
16635;DHT22;8431;52.458;9.998;2023-07-22T06:20:34;15.00;99.90
16635;DHT22;8431;52.458;9.998;2023-07-22T06:23:01;15.50;99.90
16635;DHT22;8431;52.458;9.998;2023-07-22T06:25:29;15.40;99.90
16635;DHT22;8431;52.458;9.998;2023-07-22T06:27:55;15.50;99.90
16635;DHT22;8431;52.458;9.998;2023-07-22T06:30:22;15.50;99.90
16635;DHT22;8431;52.458;9.998;2023-07-22T06:32:51;15.30;99.90
16635;DHT22;8431;52.458;9.998;2023-07-22T06:35:18;15.50;99.90
16635;DHT22;8431;52.458;9.998;2023-07-22T06:37:45;15.70;99.90
16635;DHT22;8431;52.458;9.998;2023-07-22T06:40:12;16.10;99.90
16635;DHT22;8431;52.458;9.998;2023-07-22T06:42:39;16.20;99.90
16635;DHT22;8431;52.458;9.998;2023-07-22T06:45:07;16.30;99.90
16635;DHT22;8431;52.458;9.998;2023-07-22T06:47:34;16.00;99.90
16635;DHT22;8431;52.458;9.998;2023-07-22T06:50:03;15.90;99.90
16635;DHT22;8431;52.458;9.998;2023-07-22T06:52:31;16.00;99.90
16635;DHT22;8431;52.458;9.998;2023-07-22T06:54:58;16.30;99.90
16635;DHT22;8431;52.458;9.998;2023-07-22T06:57:25;16.10;99.90
16635;DHT22;8431;52.458;9.998;2023-07-22T06:59:53;16.20;99.90
16635;DHT22;8431;52.458;9.998;2023-07-22T07:02:21;16.30;99.90
16635;DHT22;8431;52.458;9.998;2023-07-22T07:04:48;16.50;99.90
16635;DHT22;8431;52.458;9.998;2023-07-22T07:07:16;16.40;99.90
16635;DHT22;8431;52.458;9.998;2023-07-22T07:09:43;16.20;99.90
16635;DHT22;8431;52.458;9.998;2023-07-22T07:12:11;16.20;99.90
16635;DHT22;8431;52.458;9.998;2023-07-22T07:14:38;16.20;99.90
16635;DHT22;8431;52.458;9.998;2023-07-22T07:17:05;16.30;99.90
16635;DHT22;8431;52.458;9.998;2023-07-22T07:19:32;16.50;99.90
16635;DHT22;8431;52.458;9.998;2023-07-22T07:21:59;16.50;99.90
16635;DHT22;8431;52.458;9.998;2023-07-22T07:24:28;16.60;99.90
16635;DHT22;8431;52.458;9.998;2023-07-22T07:26:55;16.40;99.90
16635;DHT22;8431;52.458;9.998;2023-07-22T07:29:22;16.80;99.90
16635;DHT22;8431;52.458;9.998;2023-07-22T07:31:52;16.90;99.90
16635;DHT22;8431;52.458;9.998;2023-07-22T07:34:19;16.80;99.90
16635;DHT22;8431;52.458;9.998;2023-07-22T07:36:47;16.70;99.90
16635;DHT22;8431;52.458;9.998;2023-07-22T07:39:15;16.80;99.90
16635;DHT22;8431;52.458;9.998;2023-07-22T07:41:43;16.60;99.90
16635;DHT22;8431;52.458;9.998;2023-07-22T07:44:10;17.00;99.90
16635;DHT22;8431;52.458;9.998;2023-07-22T07:46:37;16.90;99.90
16635;DHT22;8431;52.458;9.998;2023-07-22T07:49:04;17.00;99.90
16635;DHT22;8431;52.458;9.998;2023-07-22T07:51:32;16.80;99.90
16635;DHT22;8431;52.458;9.998;2023-07-22T07:53:59;16.70;99.90
16635;DHT22;8431;52.458;9.998;2023-07-22T07:56:27;16.40;99.90
16635;DHT22;8431;52.458;9.998;2023-07-22T07:58:56;16.30;99.90
16635;DHT22;8431;52.458;9.998;2023-07-22T08:01:23;16.40;99.90
16635;DHT22;8431;52.458;9.998;2023-07-22T08:03:50;16.60;99.90
16635;DHT22;8431;52.458;9.998;2023-07-22T08:06:18;16.70;99.90
16635;DHT22;8431;52.458;9.998;2023-07-22T08:08:45;17.00;99.90
16635;DHT22;8431;52.458;9.998;2023-07-22T08:11:13;17.50;99.90
16635;DHT22;8431;52.458;9.998;2023-07-22T08:13:42;18.00;99.90
16635;DHT22;8431;52.458;9.998;2023-07-22T08:16:12;17.90;99.90
16635;DHT22;8431;52.458;9.998;2023-07-22T08:18:39;17.80;99.90
16635;DHT22;8431;52.458;9.998;2023-07-22T08:21:07;17.70;99.90
16635;DHT22;8431;52.458;9.998;2023-07-22T08:23:35;17.80;99.90
16635;DHT22;8431;52.458;9.998;2023-07-22T08:26:02;17.70;99.90
16635;DHT22;8431;52.458;9.998;2023-07-22T08:28:31;17.50;99.90
16635;DHT22;8431;52.458;9.998;2023-07-22T08:30:58;17.50;99.90
16635;DHT22;8431;52.458;9.998;2023-07-22T08:33:29;17.40;99.90
16635;DHT22;8431;52.458;9.998;2023-07-22T08:35:56;17.80;99.90
16635;DHT22;8431;52.458;9.998;2023-07-22T08:38:23;18.00;99.90
16635;DHT22;8431;52.458;9.998;2023-07-22T08:40:50;17.90;99.90
16635;DHT22;8431;52.458;9.998;2023-07-22T08:43:20;17.50;99.90
16635;DHT22;8431;52.458;9.998;2023-07-22T08:45:52;17.70;99.90
16635;DHT22;8431;52.458;9.998;2023-07-22T08:48:29;18.00;99.90
16635;DHT22;8431;52.458;9.998;2023-07-22T08:51:02;18.30;99.90
16635;DHT22;8431;52.458;9.998;2023-07-22T08:53:29;18.30;99.90
16635;DHT22;8431;52.458;9.998;2023-07-22T08:55:59;18.70;99.90
16635;DHT22;8431;52.458;9.998;2023-07-22T08:58:26;18.90;99.90
16635;DHT22;8431;52.458;9.998;2023-07-22T09:00:54;18.70;99.90
16635;DHT22;8431;52.458;9.998;2023-07-22T09:03:30;18.50;99.90
16635;DHT22;8431;52.458;9.998;2023-07-22T09:05:58;18.00;99.90
16635;DHT22;8431;52.458;9.998;2023-07-22T09:08:26;17.60;99.90
16635;DHT22;8431;52.458;9.998;2023-07-22T09:10:53;17.20;99.90
16635;DHT22;8431;52.458;9.998;2023-07-22T09:13:21;17.10;99.90
16635;DHT22;8431;52.458;9.998;2023-07-22T09:15:49;17.30;99.90
16635;DHT22;8431;52.458;9.998;2023-07-22T09:18:17;18.00;99.90
16635;DHT22;8431;52.458;9.998;2023-07-22T09:20:46;18.60;99.90
16635;DHT22;8431;52.458;9.998;2023-07-22T09:23:13;18.70;99.90
16635;DHT22;8431;52.458;9.998;2023-07-22T09:25:42;18.40;99.90
16635;DHT22;8431;52.458;9.998;2023-07-22T09:28:10;18.10;99.90
16635;DHT22;8431;52.458;9.998;2023-07-22T09:30:38;18.80;99.90
16635;DHT22;8431;52.458;9.998;2023-07-22T09:33:08;18.90;99.90
16635;DHT22;8431;52.458;9.998;2023-07-22T09:35:48;19.20;99.90
16635;DHT22;8431;52.458;9.998;2023-07-22T09:38:22;19.50;99.90
16635;DHT22;8431;52.458;9.998;2023-07-22T09:40:49;19.70;99.90
16635;DHT22;8431;52.458;9.998;2023-07-22T09:43:16;19.30;99.90
16635;DHT22;8431;52.458;9.998;2023-07-22T09:45:46;19.40;99.90
16635;DHT22;8431;52.458;9.998;2023-07-22T09:48:14;19.50;99.90
16635;DHT22;8431;52.458;9.998;2023-07-22T09:50:41;19.80;99.90
16635;DHT22;8431;52.458;9.998;2023-07-22T09:53:15;19.50;99.90
16635;DHT22;8431;52.458;9.998;2023-07-22T09:55:42;19.90;99.90
16635;DHT22;8431;52.458;9.998;2023-07-22T09:58:10;20.00;99.90
16635;DHT22;8431;52.458;9.998;2023-07-22T10:00:42;20.00;99.90
16635;DHT22;8431;52.458;9.998;2023-07-22T10:03:20;19.80;99.90
16635;DHT22;8431;52.458;9.998;2023-07-22T10:05:50;19.80;99.90
16635;DHT22;8431;52.458;9.998;2023-07-22T10:08:19;19.60;99.90
16635;DHT22;8431;52.458;9.998;2023-07-22T10:10:57;19.50;99.90
16635;DHT22;8431;52.458;9.998;2023-07-22T10:13:30;18.90;99.90
16635;DHT22;8431;52.458;9.998;2023-07-22T10:16:00;18.70;99.90
16635;DHT22;8431;52.458;9.998;2023-07-22T10:18:29;18.70;99.90
16635;DHT22;8431;52.458;9.998;2023-07-22T10:20:58;18.60;99.90
16635;DHT22;8431;52.458;9.998;2023-07-22T10:23:28;18.90;99.90
16635;DHT22;8431;52.458;9.998;2023-07-22T10:26:04;19.30;99.90
16635;DHT22;8431;52.458;9.998;2023-07-22T10:28:32;19.60;99.90
16635;DHT22;8431;52.458;9.998;2023-07-22T10:30:59;19.60;99.90
16635;DHT22;8431;52.458;9.998;2023-07-22T10:33:28;19.60;99.90
16635;DHT22;8431;52.458;9.998;2023-07-22T10:36:04;19.50;99.90
16635;DHT22;8431;52.458;9.998;2023-07-22T10:38:34;19.90;99.90
16635;DHT22;8431;52.458;9.998;2023-07-22T10:41:01;20.30;99.90
16635;DHT22;8431;52.458;9.998;2023-07-22T10:43:33;20.60;99.90
16635;DHT22;8431;52.458;9.998;2023-07-22T10:46:05;20.40;99.90
16635;DHT22;8431;52.458;9.998;2023-07-22T10:48:35;20.50;99.90
16635;DHT22;8431;52.458;9.998;2023-07-22T10:51:06;20.10;99.90
16635;DHT22;8431;52.458;9.998;2023-07-22T10:53:42;20.00;99.90
16635;DHT22;8431;52.458;9.998;2023-07-22T10:56:14;20.30;99.90
16635;DHT22;8431;52.458;9.998;2023-07-22T10:58:59;19.80;99.90
16635;DHT22;8431;52.458;9.998;2023-07-22T11:01:36;20.10;99.90
16635;DHT22;8431;52.458;9.998;2023-07-22T11:04:12;20.00;99.90
16635;DHT22;8431;52.458;9.998;2023-07-22T11:06:52;20.20;99.90
16635;DHT22;8431;52.458;9.998;2023-07-22T11:12:18;18.80;99.90
16635;DHT22;8431;52.458;9.998;2023-07-22T11:14:48;18.80;99.90
16635;DHT22;8431;52.458;9.998;2023-07-22T11:17:27;18.70;99.90
16635;DHT22;8431;52.458;9.998;2023-07-22T11:19:56;18.80;99.90
16635;DHT22;8431;52.458;9.998;2023-07-22T11:22:23;18.90;99.90
16635;DHT22;8431;52.458;9.998;2023-07-22T11:24:52;19.50;99.90
16635;DHT22;8431;52.458;9.998;2023-07-22T11:27:24;20.00;99.90
16635;DHT22;8431;52.458;9.998;2023-07-22T11:29:51;20.40;99.90
16635;DHT22;8431;52.458;9.998;2023-07-22T11:32:19;20.30;99.90
16635;DHT22;8431;52.458;9.998;2023-07-22T11:34:51;20.00;99.90
16635;DHT22;8431;52.458;9.998;2023-07-22T11:37:18;19.70;99.90
16635;DHT22;8431;52.458;9.998;2023-07-22T11:39:45;19.40;99.90
16635;DHT22;8431;52.458;9.998;2023-07-22T11:42:24;19.10;99.90
16635;DHT22;8431;52.458;9.998;2023-07-22T11:44:51;18.90;99.90
16635;DHT22;8431;52.458;9.998;2023-07-22T11:47:18;18.80;99.90
16635;DHT22;8431;52.458;9.998;2023-07-22T11:49:47;18.60;99.90
16635;DHT22;8431;52.458;9.998;2023-07-22T11:52:16;18.60;99.90
16635;DHT22;8431;52.458;9.998;2023-07-22T11:54:46;18.50;99.90
16635;DHT22;8431;52.458;9.998;2023-07-22T11:57:13;18.60;99.90
16635;DHT22;8431;52.458;9.998;2023-07-22T11:59:45;18.80;99.90
16635;DHT22;8431;52.458;9.998;2023-07-22T12:02:16;19.30;99.90
16635;DHT22;8431;52.458;9.998;2023-07-22T12:04:43;19.90;99.90
16635;DHT22;8431;52.458;9.998;2023-07-22T12:07:22;20.30;99.90
16635;DHT22;8431;52.458;9.998;2023-07-22T12:09:51;20.60;99.90
16635;DHT22;8431;52.458;9.998;2023-07-22T12:12:18;20.60;99.90
16635;DHT22;8431;52.458;9.998;2023-07-22T12:14:47;20.50;99.90
16635;DHT22;8431;52.458;9.998;2023-07-22T12:17:14;20.40;99.90
16635;DHT22;8431;52.458;9.998;2023-07-22T12:19:51;20.40;99.90
16635;DHT22;8431;52.458;9.998;2023-07-22T12:22:18;20.10;99.90
16635;DHT22;8431;52.458;9.998;2023-07-22T12:24:47;19.90;99.90
16635;DHT22;8431;52.458;9.998;2023-07-22T12:27:14;19.70;99.90
16635;DHT22;8431;52.458;9.998;2023-07-22T12:29:41;19.60;99.90
16635;DHT22;8431;52.458;9.998;2023-07-22T12:32:09;19.30;99.90
16635;DHT22;8431;52.458;9.998;2023-07-22T12:34:36;19.30;99.90
16635;DHT22;8431;52.458;9.998;2023-07-22T12:37:04;19.30;99.90
16635;DHT22;8431;52.458;9.998;2023-07-22T12:39:32;19.30;99.90
16635;DHT22;8431;52.458;9.998;2023-07-22T12:41:59;19.30;99.90
16635;DHT22;8431;52.458;9.998;2023-07-22T12:44:26;19.30;99.90
16635;DHT22;8431;52.458;9.998;2023-07-22T12:46:53;19.50;99.90
16635;DHT22;8431;52.458;9.998;2023-07-22T12:49:22;19.70;99.90
16635;DHT22;8431;52.458;9.998;2023-07-22T12:51:50;20.10;99.90
16635;DHT22;8431;52.458;9.998;2023-07-22T12:54:17;20.00;99.90
16635;DHT22;8431;52.458;9.998;2023-07-22T12:56:45;19.50;99.90
16635;DHT22;8431;52.458;9.998;2023-07-22T12:59:12;19.40;99.90
16635;DHT22;8431;52.458;9.998;2023-07-22T13:01:39;19.70;99.90
16635;DHT22;8431;52.458;9.998;2023-07-22T13:04:07;20.00;99.90
16635;DHT22;8431;52.458;9.998;2023-07-22T13:06:36;20.30;99.90
16635;DHT22;8431;52.458;9.998;2023-07-22T13:09:05;20.80;99.90
16635;DHT22;8431;52.458;9.998;2023-07-22T13:11:32;21.20;99.90
16635;DHT22;8431;52.458;9.998;2023-07-22T13:14:00;21.90;99.90
16635;DHT22;8431;52.458;9.998;2023-07-22T13:16:28;21.50;99.90
16635;DHT22;8431;52.458;9.998;2023-07-22T13:18:55;21.10;99.90
16635;DHT22;8431;52.458;9.998;2023-07-22T13:21:24;20.60;99.90
16635;DHT22;8431;52.458;9.998;2023-07-22T13:23:55;20.40;99.90
16635;DHT22;8431;52.458;9.998;2023-07-22T13:26:22;20.20;99.90
16635;DHT22;8431;52.458;9.998;2023-07-22T13:28:49;19.90;99.90
16635;DHT22;8431;52.458;9.998;2023-07-22T13:31:16;19.80;99.90
16635;DHT22;8431;52.458;9.998;2023-07-22T13:33:43;19.70;99.90
16635;DHT22;8431;52.458;9.998;2023-07-22T13:36:10;19.80;99.90
16635;DHT22;8431;52.458;9.998;2023-07-22T13:38:37;19.80;99.90
16635;DHT22;8431;52.458;9.998;2023-07-22T13:41:05;19.90;99.90
16635;DHT22;8431;52.458;9.998;2023-07-22T13:43:32;20.00;99.90
16635;DHT22;8431;52.458;9.998;2023-07-22T13:45:59;20.20;99.90
16635;DHT22;8431;52.458;9.998;2023-07-22T13:48:26;20.20;99.90
16635;DHT22;8431;52.458;9.998;2023-07-22T13:50:53;20.40;99.90
16635;DHT22;8431;52.458;9.998;2023-07-22T13:53:20;20.30;99.90
16635;DHT22;8431;52.458;9.998;2023-07-22T13:55:47;20.20;99.90
16635;DHT22;8431;52.458;9.998;2023-07-22T13:58:15;19.80;99.90
16635;DHT22;8431;52.458;9.998;2023-07-22T14:00:42;19.70;99.90
16635;DHT22;8431;52.458;9.998;2023-07-22T14:03:09;19.50;99.90
16635;DHT22;8431;52.458;9.998;2023-07-22T14:05:36;19.40;99.90
16635;DHT22;8431;52.458;9.998;2023-07-22T14:08:04;19.30;99.90
16635;DHT22;8431;52.458;9.998;2023-07-22T14:10:31;19.30;99.90
16635;DHT22;8431;52.458;9.998;2023-07-22T14:12:57;19.20;99.90
16635;DHT22;8431;52.458;9.998;2023-07-22T14:15:26;19.10;99.90
16635;DHT22;8431;52.458;9.998;2023-07-22T14:17:53;19.20;99.90
16635;DHT22;8431;52.458;9.998;2023-07-22T14:20:20;19.60;99.90
16635;DHT22;8431;52.458;9.998;2023-07-22T14:22:47;20.00;99.90
16635;DHT22;8431;52.458;9.998;2023-07-22T14:25:16;20.20;99.90
16635;DHT22;8431;52.458;9.998;2023-07-22T14:27:44;20.30;99.90
16635;DHT22;8431;52.458;9.998;2023-07-22T14:30:11;20.40;99.90
16635;DHT22;8431;52.458;9.998;2023-07-22T14:32:40;20.20;99.90
16635;DHT22;8431;52.458;9.998;2023-07-22T14:35:07;20.20;99.90
16635;DHT22;8431;52.458;9.998;2023-07-22T14:37:36;20.50;99.90
16635;DHT22;8431;52.458;9.998;2023-07-22T14:40:04;21.00;99.90
16635;DHT22;8431;52.458;9.998;2023-07-22T14:42:31;21.20;99.90
16635;DHT22;8431;52.458;9.998;2023-07-22T14:44:58;21.70;99.90
16635;DHT22;8431;52.458;9.998;2023-07-22T14:47:25;21.60;99.90
16635;DHT22;8431;52.458;9.998;2023-07-22T14:49:54;21.70;99.90
16635;DHT22;8431;52.458;9.998;2023-07-22T14:52:21;21.60;99.90
16635;DHT22;8431;52.458;9.998;2023-07-22T14:54:48;21.50;99.90
16635;DHT22;8431;52.458;9.998;2023-07-22T14:57:16;21.50;99.90
16635;DHT22;8431;52.458;9.998;2023-07-22T14:59:43;21.40;99.90
16635;DHT22;8431;52.458;9.998;2023-07-22T15:02:10;21.40;99.90
16635;DHT22;8431;52.458;9.998;2023-07-22T15:04:37;21.30;99.90
16635;DHT22;8431;52.458;9.998;2023-07-22T15:07:06;20.90;99.90
16635;DHT22;8431;52.458;9.998;2023-07-22T15:09:33;20.60;99.90
16635;DHT22;8431;52.458;9.998;2023-07-22T15:12:00;20.30;99.90
16635;DHT22;8431;52.458;9.998;2023-07-22T15:14:27;20.10;99.90
16635;DHT22;8431;52.458;9.998;2023-07-22T15:16:53;20.10;99.90
16635;DHT22;8431;52.458;9.998;2023-07-22T15:19:20;20.00;99.90
16635;DHT22;8431;52.458;9.998;2023-07-22T15:21:48;20.10;99.90
16635;DHT22;8431;52.458;9.998;2023-07-22T15:24:17;20.00;99.90
16635;DHT22;8431;52.458;9.998;2023-07-22T15:26:44;20.00;99.90
16635;DHT22;8431;52.458;9.998;2023-07-22T15:29:11;20.10;99.90
16635;DHT22;8431;52.458;9.998;2023-07-22T15:31:38;20.60;99.90
16635;DHT22;8431;52.458;9.998;2023-07-22T15:34:05;21.00;99.90
16635;DHT22;8431;52.458;9.998;2023-07-22T15:36:32;21.40;99.90
16635;DHT22;8431;52.458;9.998;2023-07-22T15:38:58;21.70;99.90
16635;DHT22;8431;52.458;9.998;2023-07-22T15:41:27;21.90;99.90
16635;DHT22;8431;52.458;9.998;2023-07-22T15:43:54;21.70;99.90
16635;DHT22;8431;52.458;9.998;2023-07-22T15:46:21;21.50;99.90
16635;DHT22;8431;52.458;9.998;2023-07-22T15:48:48;21.30;99.90
16635;DHT22;8431;52.458;9.998;2023-07-22T15:51:15;21.30;99.90
16635;DHT22;8431;52.458;9.998;2023-07-22T15:53:42;21.30;99.90